sensor_id;sensor_type;location;lat;lon;timestamp;pressure;altitude;pressure_sealevel;temperature;humidity
11172;BME280;5642;50.830;12.082;2023-04-06T00:00:59;99837.28;;;6.47;31.18
11172;BME280;5642;50.830;12.082;2023-04-06T00:03:28;99840.75;;;6.50;31.40
11172;BME280;5642;50.830;12.082;2023-04-06T00:05:57;99847.69;;;6.50;31.51
11172;BME280;5642;50.830;12.082;2023-04-06T00:08:26;99832.13;;;6.41;31.28
11172;BME280;5642;50.830;12.082;2023-04-06T00:10:53;99840.78;;;6.44;31.24
11172;BME280;5642;50.830;12.082;2023-04-06T00:13:21;99836.47;;;6.40;31.80
11172;BME280;5642;50.830;12.082;2023-04-06T00:15:50;99833.84;;;6.43;31.62
11172;BME280;5642;50.830;12.082;2023-04-06T00:18:20;99833.81;;;6.48;31.65
11172;BME280;5642;50.830;12.082;2023-04-06T00:20:48;99833.81;;;6.48;31.13
11172;BME280;5642;50.830;12.082;2023-04-06T00:23:26;99833.84;;;6.46;31.31
11172;BME280;5642;50.830;12.082;2023-04-06T00:25:52;99837.31;;;6.45;31.51
11172;BME280;5642;50.830;12.082;2023-04-06T00:28:25;99834.72;;;6.41;31.50
11172;BME280;5642;50.830;12.082;2023-04-06T00:30:54;99830.44;;;6.35;31.64
11172;BME280;5642;50.830;12.082;2023-04-06T00:33:29;99842.59;;;6.33;31.76
11172;BME280;5642;50.830;12.082;2023-04-06T00:35:56;99832.25;;;6.27;31.85
11172;BME280;5642;50.830;12.082;2023-04-06T00:38:30;99818.47;;;6.16;31.72
11172;BME280;5642;50.830;12.082;2023-04-06T00:40:59;99815.81;;;6.20;31.65
11172;BME280;5642;50.830;12.082;2023-04-06T00:43:31;99829.63;;;6.27;31.68
11172;BME280;5642;50.830;12.082;2023-04-06T00:45:59;99830.50;;;6.32;31.79
11172;BME280;5642;50.830;12.082;2023-04-06T00:48:27;99825.25;;;6.34;31.35
11172;BME280;5642;50.830;12.082;2023-04-06T00:50:55;99826.09;;;6.36;31.80
11172;BME280;5642;50.830;12.082;2023-04-06T00:53:24;99811.41;;;6.28;31.68
11172;BME280;5642;50.830;12.082;2023-04-06T00:55:53;99823.50;;;6.33;31.75
11172;BME280;5642;50.830;12.082;2023-04-06T00:58:23;99818.41;;;6.25;31.74
11172;BME280;5642;50.830;12.082;2023-04-06T01:00:52;99821.06;;;6.14;31.95
11172;BME280;5642;50.830;12.082;2023-04-06T01:03:22;99826.34;;;6.04;31.97
11172;BME280;5642;50.830;12.082;2023-04-06T01:05:53;99826.44;;;5.88;31.91
11172;BME280;5642;50.830;12.082;2023-04-06T01:08:28;99820.44;;;5.70;31.90
11172;BME280;5642;50.830;12.082;2023-04-06T01:11:00;99818.78;;;5.55;32.53
11172;BME280;5642;50.830;12.082;2023-04-06T01:13:32;99817.13;;;5.43;32.10
11172;BME280;5642;50.830;12.082;2023-04-06T01:15:59;99826.63;;;5.41;32.67
11172;BME280;5642;50.830;12.082;2023-04-06T01:18:30;99822.31;;;5.40;32.21
11172;BME280;5642;50.830;12.082;2023-04-06T01:20:58;99821.44;;;5.44;32.31
11172;BME280;5642;50.830;12.082;2023-04-06T01:23:28;99820.53;;;5.51;32.29
11172;BME280;5642;50.830;12.082;2023-04-06T01:26:15;99817.03;;;5.56;32.17
11172;BME280;5642;50.830;12.082;2023-04-06T01:29:03;99810.97;;;5.60;32.28
11172;BME280;5642;50.830;12.082;2023-04-06T01:31:50;99808.34;;;5.67;31.97
11172;BME280;5642;50.830;12.082;2023-04-06T01:34:37;99810.91;;;5.72;32.28
11172;BME280;5642;50.830;12.082;2023-04-06T01:37:24;99814.31;;;5.80;32.23
11172;BME280;5642;50.830;12.082;2023-04-06T01:39:57;99797.88;;;5.79;31.91
11172;BME280;5642;50.830;12.082;2023-04-06T01:42:31;99814.28;;;5.95;32.04
11172;BME280;5642;50.830;12.082;2023-04-06T01:45:18;99809.91;;;6.02;31.69
11172;BME280;5642;50.830;12.082;2023-04-06T01:48:05;99802.97;;;6.04;31.96
11172;BME280;5642;50.830;12.082;2023-04-06T01:50:52;99803.78;;;6.10;31.87
11172;BME280;5642;50.830;12.082;2023-04-06T01:53:21;99816.69;;;6.21;31.83
11172;BME280;5642;50.830;12.082;2023-04-06T01:55:49;99807.09;;;6.27;31.74
11172;BME280;5642;50.830;12.082;2023-04-06T01:58:18;99793.22;;;6.27;31.90
11172;BME280;5642;50.830;12.082;2023-04-06T02:00:47;99796.69;;;6.31;31.84
11172;BME280;5642;50.830;12.082;2023-04-06T02:03:16;99808.75;;;6.38;31.92
11172;BME280;5642;50.830;12.082;2023-04-06T02:05:43;99805.28;;;6.36;31.83
11172;BME280;5642;50.830;12.082;2023-04-06T02:08:12;99801.84;;;6.34;31.92
11172;BME280;5642;50.830;12.082;2023-04-06T02:10:39;99807.03;;;6.35;31.72
11172;BME280;5642;50.830;12.082;2023-04-06T02:13:07;99803.56;;;6.36;32.02
11172;BME280;5642;50.830;12.082;2023-04-06T02:15:33;99787.94;;;6.35;31.71
11172;BME280;5642;50.830;12.082;2023-04-06T02:18:03;99793.97;;;6.43;31.85
11172;BME280;5642;50.830;12.082;2023-04-06T02:20:30;99785.28;;;6.45;32.22
11172;BME280;5642;50.830;12.082;2023-04-06T02:22:58;99781.81;;;6.46;31.99
11172;BME280;5642;50.830;12.082;2023-04-06T02:25:26;99784.41;;;6.43;32.01
11172;BME280;5642;50.830;12.082;2023-04-06T02:27:54;99781.81;;;6.45;32.09
11172;BME280;5642;50.830;12.082;2023-04-06T02:30:22;99780.94;;;6.41;32.04
11172;BME280;5642;50.830;12.082;2023-04-06T02:32:48;99787.91;;;6.41;32.18
11172;BME280;5642;50.830;12.082;2023-04-06T02:35:14;99784.41;;;6.45;32.29
11172;BME280;5642;50.830;12.082;2023-04-06T02:37:44;99784.41;;;6.45;32.44
11172;BME280;5642;50.830;12.082;2023-04-06T02:40:13;99776.59;;;6.46;32.12
11172;BME280;5642;50.830;12.082;2023-04-06T02:42:41;99783.50;;;6.49;32.30
11172;BME280;5642;50.830;12.082;2023-04-06T02:45:08;99786.97;;;6.48;32.38
11172;BME280;5642;50.830;12.082;2023-04-06T02:47:36;99791.28;;;6.49;32.13
11172;BME280;5642;50.830;12.082;2023-04-06T02:50:04;99781.75;;;6.49;32.28
11172;BME280;5642;50.830;12.082;2023-04-06T02:52:32;99782.63;;;6.48;32.22
11172;BME280;5642;50.830;12.082;2023-04-06T02:54:59;99762.84;;;6.31;32.09
11172;BME280;5642;50.830;12.082;2023-04-06T02:57:27;99795.75;;;6.39;32.14
11172;BME280;5642;50.830;12.082;2023-04-06T02:59:54;99791.47;;;6.32;32.42
11172;BME280;5642;50.830;12.082;2023-04-06T03:02:20;99795.88;;;6.19;32.59
11172;BME280;5642;50.830;12.082;2023-04-06T03:04:48;99794.25;;;6.08;32.57
11172;BME280;5642;50.830;12.082;2023-04-06T03:07:15;99797.75;;;6.01;32.58
11172;BME280;5642;50.830;12.082;2023-04-06T03:09:42;99804.75;;;5.96;33.08
11172;BME280;5642;50.830;12.082;2023-04-06T03:12:09;99793.47;;;5.92;33.17
11172;BME280;5642;50.830;12.082;2023-04-06T03:14:36;99796.97;;;5.86;32.83
11172;BME280;5642;50.830;12.082;2023-04-06T03:17:04;99801.28;;;5.86;32.88
11172;BME280;5642;50.830;12.082;2023-04-06T03:19:30;99802.19;;;5.82;33.10
11172;BME280;5642;50.830;12.082;2023-04-06T03:21:56;99797.00;;;5.76;33.00
11172;BME280;5642;50.830;12.082;2023-04-06T03:24:24;99763.38;;;5.48;32.95
11172;BME280;5642;50.830;12.082;2023-04-06T03:26:51;99803.16;;;5.64;33.02
11172;BME280;5642;50.830;12.082;2023-04-06T03:29:18;99800.59;;;5.55;33.18
11172;BME280;5642;50.830;12.082;2023-04-06T03:31:46;99789.41;;;5.42;33.03
11172;BME280;5642;50.830;12.082;2023-04-06T03:34:12;99800.69;;;5.35;33.05
11172;BME280;5642;50.830;12.082;2023-04-06T03:36:38;99798.13;;;5.28;33.37
11172;BME280;5642;50.830;12.082;2023-04-06T03:39:04;99804.22;;;5.21;33.32
11172;BME280;5642;50.830;12.082;2023-04-06T03:41:33;99797.34;;;5.10;33.12
11172;BME280;5642;50.830;12.082;2023-04-06T03:44:00;99800.78;;;5.05;33.64
11172;BME280;5642;50.830;12.082;2023-04-06T03:46:26;99813.78;;;4.99;33.56
11172;BME280;5642;50.830;12.082;2023-04-06T03:48:54;99819.00;;;4.91;33.70
11172;BME280;5642;50.830;12.082;2023-04-06T03:51:20;99811.25;;;4.79;34.07
11172;BME280;5642;50.830;12.082;2023-04-06T03:53:47;99813.84;;;4.76;34.06
11172;BME280;5642;50.830;12.082;2023-04-06T03:56:13;99815.63;;;4.68;33.43
11172;BME280;5642;50.830;12.082;2023-04-06T03:58:40;99819.91;;;4.69;33.27
11172;BME280;5642;50.830;12.082;2023-04-06T04:01:06;99815.59;;;4.62;33.41
11172;BME280;5642;50.830;12.082;2023-04-06T04:03:32;99819.09;;;4.61;33.86
11172;BME280;5642;50.830;12.082;2023-04-06T04:06:00;99821.66;;;4.58;33.63
11172;BME280;5642;50.830;12.082;2023-04-06T04:08:26;99829.44;;;4.55;34.02
11172;BME280;5642;50.830;12.082;2023-04-06T04:10:52;99826.84;;;4.49;33.69
11172;BME280;5642;50.830;12.082;2023-04-06T04:13:19;99828.59;;;4.44;33.63
11172;BME280;5642;50.830;12.082;2023-04-06T04:15:47;99825.13;;;4.39;33.73
11172;BME280;5642;50.830;12.082;2023-04-06T04:18:13;99825.16;;;4.32;33.93
11172;BME280;5642;50.830;12.082;2023-04-06T04:20:40;99828.59;;;4.31;34.41
11172;BME280;5642;50.830;12.082;2023-04-06T04:23:06;99827.72;;;4.29;34.02
11172;BME280;5642;50.830;12.082;2023-04-06T04:25:33;99824.28;;;4.26;34.16
11172;BME280;5642;50.830;12.082;2023-04-06T04:27:59;99828.56;;;4.21;34.36
11172;BME280;5642;50.830;12.082;2023-04-06T04:30:26;99828.56;;;4.19;34.23
11172;BME280;5642;50.830;12.082;2023-04-06T04:32:52;99828.59;;;4.16;33.78
11172;BME280;5642;50.830;12.082;2023-04-06T04:35:18;99823.38;;;4.13;34.00
11172;BME280;5642;50.830;12.082;2023-04-06T04:37:44;99834.63;;;4.15;34.42
11172;BME280;5642;50.830;12.082;2023-04-06T04:40:11;99834.59;;;4.12;34.38
11172;BME280;5642;50.830;12.082;2023-04-06T04:42:38;99840.69;;;4.10;34.26
11172;BME280;5642;50.830;12.082;2023-04-06T04:45:06;99837.22;;;4.08;34.00
11172;BME280;5642;50.830;12.082;2023-04-06T04:47:34;99837.22;;;4.02;33.81
11172;BME280;5642;50.830;12.082;2023-04-06T04:50:01;99838.06;;;4.01;34.09
11172;BME280;5642;50.830;12.082;2023-04-06T04:52:28;99835.47;;;3.98;34.50
11172;BME280;5642;50.830;12.082;2023-04-06T04:54:56;99828.56;;;3.97;34.70
11172;BME280;5642;50.830;12.082;2023-04-06T04:57:22;99834.59;;;3.99;34.29
11172;BME280;5642;50.830;12.082;2023-04-06T04:59:52;99839.78;;;4.00;34.16
11172;BME280;5642;50.830;12.082;2023-04-06T05:02:19;99840.66;;;4.02;34.72
11172;BME280;5642;50.830;12.082;2023-04-06T05:04:46;99846.72;;;4.04;34.35
11172;BME280;5642;50.830;12.082;2023-04-06T05:07:12;99845.84;;;4.08;34.31
11172;BME280;5642;50.830;12.082;2023-04-06T05:09:38;99845.88;;;4.16;34.21
11172;BME280;5642;50.830;12.082;2023-04-06T05:12:05;99843.28;;;4.23;34.02
11172;BME280;5642;50.830;12.082;2023-04-06T05:14:31;99834.66;;;4.26;33.98
11172;BME280;5642;50.830;12.082;2023-04-06T05:16:59;99840.69;;;4.37;33.99
11172;BME280;5642;50.830;12.082;2023-04-06T05:19:25;99848.47;;;4.51;34.23
11172;BME280;5642;50.830;12.082;2023-04-06T05:21:51;99851.94;;;4.59;33.50
11172;BME280;5642;50.830;12.082;2023-04-06T05:24:18;99854.53;;;4.68;33.95
11172;BME280;5642;50.830;12.082;2023-04-06T05:26:44;99846.69;;;5.01;33.69
11172;BME280;5642;50.830;12.082;2023-04-06T05:29:11;99854.31;;;5.53;32.78
11172;BME280;5642;50.830;12.082;2023-04-06T05:31:37;99855.66;;;6.27;32.33
11172;BME280;5642;50.830;12.082;2023-04-06T05:34:07;99846.13;;;7.21;31.60
11172;BME280;5642;50.830;12.082;2023-04-06T05:36:35;99839.88;;;8.03;30.53
11172;BME280;5642;50.830;12.082;2023-04-06T05:39:01;99836.94;;;8.79;30.29
11172;BME280;5642;50.830;12.082;2023-04-06T05:41:27;99826.06;;;9.47;29.96
11172;BME280;5642;50.830;12.082;2023-04-06T05:43:53;99841.38;;;10.05;29.63
11172;BME280;5642;50.830;12.082;2023-04-06T05:46:19;99833.34;;;10.51;29.11
11172;BME280;5642;50.830;12.082;2023-04-06T05:48:46;99817.75;;;11.13;28.90
11172;BME280;5642;50.830;12.082;2023-04-06T05:51:12;99826.63;;;12.00;28.48
11172;BME280;5642;50.830;12.082;2023-04-06T05:53:38;99826.59;;;12.80;28.13
11172;BME280;5642;50.830;12.082;2023-04-06T05:56:05;99817.00;;;13.54;27.82
11172;BME280;5642;50.830;12.082;2023-04-06T05:58:31;99823.00;;;14.26;27.56
11172;BME280;5642;50.830;12.082;2023-04-06T06:01:01;99812.31;;;14.93;27.22
11172;BME280;5642;50.830;12.082;2023-04-06T06:03:29;99804.47;;;15.50;27.36
11172;BME280;5642;50.830;12.082;2023-04-06T06:06:02;99803.75;;;16.04;nan
11172;BME280;5642;50.830;12.082;2023-04-06T06:08:29;99816.56;;;16.67;26.59
11172;BME280;5642;50.830;12.082;2023-04-06T06:10:59;99806.84;;;17.19;26.55
11172;BME280;5642;50.830;12.082;2023-04-06T06:13:27;99805.28;;;17.65;26.42
11172;BME280;5642;50.830;12.082;2023-04-06T06:15:53;99815.75;;;18.15;26.38
11172;BME280;5642;50.830;12.082;2023-04-06T06:18:19;99814.19;;;18.58;26.33
11172;BME280;5642;50.830;12.082;2023-04-06T06:20:45;99783.84;;;18.92;26.21
11172;BME280;5642;50.830;12.082;2023-04-06T06:23:11;99805.28;;;19.62;26.13
11172;BME280;5642;50.830;12.082;2023-04-06T06:25:38;99791.38;;;19.99;25.67
11172;BME280;5642;50.830;12.082;2023-04-06T06:28:05;99791.78;;;20.34;25.71
11172;BME280;5642;50.830;12.082;2023-04-06T06:30:31;99802.06;;;20.80;25.52
11172;BME280;5642;50.830;12.082;2023-04-06T06:32:57;99803.41;;;21.25;25.69
11172;BME280;5642;50.830;12.082;2023-04-06T06:35:24;99804.91;;;21.67;25.42
11172;BME280;5642;50.830;12.082;2023-04-06T06:37:52;99802.53;;;22.00;25.39
11172;BME280;5642;50.830;12.082;2023-04-06T06:40:18;99779.34;;;22.37;25.30
11172;BME280;5642;50.830;12.082;2023-04-06T06:42:45;99789.59;;;23.13;25.22
11172;BME280;5642;50.830;12.082;2023-04-06T06:45:12;99798.78;;;23.77;24.87
11172;BME280;5642;50.830;12.082;2023-04-06T06:47:40;99794.31;;;24.43;24.48
11172;BME280;5642;50.830;12.082;2023-04-06T06:50:07;99793.81;;;25.02;24.28
11172;BME280;5642;50.830;12.082;2023-04-06T06:52:33;99783.97;;;25.54;24.39
11172;BME280;5642;50.830;12.082;2023-04-06T06:55:00;99790.56;;;26.10;24.17
11172;BME280;5642;50.830;12.082;2023-04-06T06:57:29;99789.66;;;26.60;23.85
11172;BME280;5642;50.830;12.082;2023-04-06T06:59:55;99783.00;;;27.12;23.84
11172;BME280;5642;50.830;12.082;2023-04-06T07:02:21;99782.63;;;27.44;23.53
11172;BME280;5642;50.830;12.082;2023-04-06T07:04:50;99785.47;;;27.89;23.33
11172;BME280;5642;50.830;12.082;2023-04-06T07:07:16;99779.94;;;28.18;23.68
11172;BME280;5642;50.830;12.082;2023-04-06T07:09:42;99779.22;;;28.61;23.65
11172;BME280;5642;50.830;12.082;2023-04-06T07:12:09;99780.13;;;29.05;23.60
11172;BME280;5642;50.830;12.082;2023-04-06T07:14:37;99786.63;;;29.38;23.06
11172;BME280;5642;50.830;12.082;2023-04-06T07:17:03;99785.13;;;29.77;22.87
11172;BME280;5642;50.830;12.082;2023-04-06T07:19:31;99781.75;;;30.09;23.06
11172;BME280;5642;50.830;12.082;2023-04-06T07:21:58;99772.38;;;30.46;22.90
11172;BME280;5642;50.830;12.082;2023-04-06T07:24:28;99780.22;;;30.89;22.54
11172;BME280;5642;50.830;12.082;2023-04-06T07:26:57;99773.63;;;31.16;22.60
11172;BME280;5642;50.830;12.082;2023-04-06T07:29:24;99772.63;;;31.09;22.57
11172;BME280;5642;50.830;12.082;2023-04-06T07:31:54;99772.09;;;31.22;22.60
11172;BME280;5642;50.830;12.082;2023-04-06T07:34:21;99772.56;;;31.41;22.60
11172;BME280;5642;50.830;12.082;2023-04-06T07:36:47;99780.50;;;31.43;22.27
11172;BME280;5642;50.830;12.082;2023-04-06T07:39:14;99773.78;;;31.31;22.42
11172;BME280;5642;50.830;12.082;2023-04-06T07:41:40;99774.47;;;31.17;22.44
11172;BME280;5642;50.830;12.082;2023-04-06T07:44:07;99771.47;;;31.11;22.19
11172;BME280;5642;50.830;12.082;2023-04-06T07:46:33;99777.66;;;31.28;22.34
11172;BME280;5642;50.830;12.082;2023-04-06T07:49:00;99766.63;;;31.54;22.21
11172;BME280;5642;50.830;12.082;2023-04-06T07:51:29;99772.63;;;31.88;22.13
11172;BME280;5642;50.830;12.082;2023-04-06T07:53:55;99770.75;;;32.28;22.00
11172;BME280;5642;50.830;12.082;2023-04-06T07:56:24;99769.31;;;32.63;22.24
11172;BME280;5642;50.830;12.082;2023-04-06T07:58:50;99764.75;;;32.86;21.79
11172;BME280;5642;50.830;12.082;2023-04-06T08:01:16;99763.50;;;33.12;21.81
11172;BME280;5642;50.830;12.082;2023-04-06T08:03:42;99767.38;;;33.17;21.58
11172;BME280;5642;50.830;12.082;2023-04-06T08:06:08;99766.50;;;33.02;21.65
11172;BME280;5642;50.830;12.082;2023-04-06T08:08:35;99763.59;;;33.18;21.66
11172;BME280;5642;50.830;12.082;2023-04-06T08:11:01;99755.31;;;33.49;21.66
11172;BME280;5642;50.830;12.082;2023-04-06T08:13:28;99764.94;;;33.74;21.52
11172;BME280;5642;50.830;12.082;2023-04-06T08:15:55;99744.41;;;33.72;21.38
11172;BME280;5642;50.830;12.082;2023-04-06T08:18:21;99761.13;;;33.90;21.55
11172;BME280;5642;50.830;12.082;2023-04-06T08:20:47;99751.22;;;34.18;21.19
11172;BME280;5642;50.830;12.082;2023-04-06T08:23:14;99761.84;;;34.71;21.11
11172;BME280;5642;50.830;12.082;2023-04-06T08:25:41;99759.63;;;34.95;20.81
11172;BME280;5642;50.830;12.082;2023-04-06T08:28:07;99761.22;;;35.18;21.04
11172;BME280;5642;50.830;12.082;2023-04-06T08:30:35;99753.22;;;35.31;20.61
11172;BME280;5642;50.830;12.082;2023-04-06T08:33:02;99749.66;;;35.30;20.71
11172;BME280;5642;50.830;12.082;2023-04-06T08:35:28;99747.50;;;35.60;20.51
11172;BME280;5642;50.830;12.082;2023-04-06T08:37:55;99746.22;;;35.91;20.40
11172;BME280;5642;50.830;12.082;2023-04-06T08:40:22;99757.91;;;36.32;20.47
11172;BME280;5642;50.830;12.082;2023-04-06T08:42:59;99750.50;;;36.80;19.92
11172;BME280;5642;50.830;12.082;2023-04-06T08:45:29;99748.16;;;37.17;19.81
11172;BME280;5642;50.830;12.082;2023-04-06T08:47:57;99743.25;;;37.52;20.13
11172;BME280;5642;50.830;12.082;2023-04-06T08:50:29;99744.44;;;37.89;19.73
11172;BME280;5642;50.830;12.082;2023-04-06T08:52:56;99745.81;;;38.18;20.07
11172;BME280;5642;50.830;12.082;2023-04-06T08:55:22;99748.13;;;38.52;19.73
11172;BME280;5642;50.830;12.082;2023-04-06T08:57:50;99750.78;;;38.34;19.47
11172;BME280;5642;50.830;12.082;2023-04-06T09:00:20;99736.22;;;37.89;19.72
11172;BME280;5642;50.830;12.082;2023-04-06T09:02:47;99740.94;;;37.69;19.65
11172;BME280;5642;50.830;12.082;2023-04-06T09:05:15;99738.88;;;37.51;19.70
11172;BME280;5642;50.830;12.082;2023-04-06T09:07:47;99731.28;;;37.59;19.48
11172;BME280;5642;50.830;12.082;2023-04-06T09:10:13;99735.81;;;37.92;19.35
11172;BME280;5642;50.830;12.082;2023-04-06T09:12:43;99742.56;;;38.34;19.06
11172;BME280;5642;50.830;12.082;2023-04-06T09:15:21;99742.81;;;38.64;19.36
11172;BME280;5642;50.830;12.082;2023-04-06T09:17:47;99735.81;;;38.68;19.16
11172;BME280;5642;50.830;12.082;2023-04-06T09:20:13;99734.44;;;38.84;18.85
11172;BME280;5642;50.830;12.082;2023-04-06T09:22:40;99730.41;;;38.93;18.76
11172;BME280;5642;50.830;12.082;2023-04-06T09:25:09;99736.66;;;39.00;18.75
11172;BME280;5642;50.830;12.082;2023-04-06T09:27:37;99730.72;;;39.03;18.81
11172;BME280;5642;50.830;12.082;2023-04-06T09:30:09;99732.59;;;39.02;18.64
11172;BME280;5642;50.830;12.082;2023-04-06T09:32:49;99725.34;;;38.65;18.62
11172;BME280;5642;50.830;12.082;2023-04-06T09:35:23;99727.84;;;37.84;18.89
11172;BME280;5642;50.830;12.082;2023-04-06T09:37:51;99728.63;;;37.20;19.18
11172;BME280;5642;50.830;12.082;2023-04-06T09:40:18;99732.41;;;36.99;19.74
11172;BME280;5642;50.830;12.082;2023-04-06T09:42:50;99715.81;;;37.01;19.29
11172;BME280;5642;50.830;12.082;2023-04-06T09:45:18;99723.13;;;37.40;19.51
11172;BME280;5642;50.830;12.082;2023-04-06T09:47:45;99716.53;;;37.74;18.81
11172;BME280;5642;50.830;12.082;2023-04-06T09:50:13;99715.16;;;37.96;18.71
11172;BME280;5642;50.830;12.082;2023-04-06T09:55:05;99712.13;;;38.17;18.77
11172;BME280;5642;50.830;12.082;2023-04-06T09:58:01;99711.19;;;38.36;18.40
11172;BME280;5642;50.830;12.082;2023-04-06T10:00:35;99706.88;;;38.54;18.46
11172;BME280;5642;50.830;12.082;2023-04-06T10:05:49;99709.78;;;38.59;18.30
11172;BME280;5642;50.830;12.082;2023-04-06T10:08:20;99711.03;;;38.25;18.73
11172;BME280;5642;50.830;12.082;2023-04-06T10:10:50;99709.38;;;37.79;19.02
11172;BME280;5642;50.830;12.082;2023-04-06T10:13:18;99702.50;;;37.63;18.42
11172;BME280;5642;50.830;12.082;2023-04-06T10:15:45;99701.84;;;37.68;18.56
11172;BME280;5642;50.830;12.082;2023-04-06T10:18:11;99693.81;;;37.80;18.43
11172;BME280;5642;50.830;12.082;2023-04-06T10:20:57;99692.63;;;38.07;18.13
11172;BME280;5642;50.830;12.082;2023-04-06T10:23:43;99693.31;;;38.34;17.90
11172;BME280;5642;50.830;12.082;2023-04-06T10:26:15;99694.53;;;38.38;18.29
11172;BME280;5642;50.830;12.082;2023-04-06T10:28:43;99700.19;;;38.43;18.21
11172;BME280;5642;50.830;12.082;2023-04-06T10:31:09;99689.16;;;38.56;18.14
11172;BME280;5642;50.830;12.082;2023-04-06T10:33:36;99683.03;;;38.61;18.29
11172;BME280;5642;50.830;12.082;2023-04-06T10:36:23;99677.56;;;38.23;17.83
11172;BME280;5642;50.830;12.082;2023-04-06T10:39:00;99676.97;;;37.12;18.06
11172;BME280;5642;50.830;12.082;2023-04-06T10:41:55;99691.47;;;35.86;18.47
11172;BME280;5642;50.830;12.082;2023-04-06T10:44:42;99692.75;;;34.86;18.84
11172;BME280;5642;50.830;12.082;2023-04-06T10:47:16;99684.53;;;34.58;19.02
11172;BME280;5642;50.830;12.082;2023-04-06T10:49:44;99689.44;;;34.48;18.99
11172;BME280;5642;50.830;12.082;2023-04-06T10:52:10;99685.13;;;34.18;19.33
11172;BME280;5642;50.830;12.082;2023-04-06T10:54:41;99672.53;;;33.60;19.19
11172;BME280;5642;50.830;12.082;2023-04-06T10:57:09;99674.13;;;33.10;19.04
11172;BME280;5642;50.830;12.082;2023-04-06T10:59:35;99683.25;;;32.80;19.23
11172;BME280;5642;50.830;12.082;2023-04-06T11:02:01;99675.28;;;32.78;19.27
11172;BME280;5642;50.830;12.082;2023-04-06T11:04:28;99649.59;;;32.89;18.87
11172;BME280;5642;50.830;12.082;2023-04-06T11:06:57;99660.81;;;33.00;19.35
11172;BME280;5642;50.830;12.082;2023-04-06T11:09:28;99667.94;;;33.16;19.15
11172;BME280;5642;50.830;12.082;2023-04-06T11:11:55;99649.59;;;33.03;18.90
11172;BME280;5642;50.830;12.082;2023-04-06T11:14:25;99659.97;;;33.15;19.28
11172;BME280;5642;50.830;12.082;2023-04-06T11:16:52;99630.03;;;33.08;19.22
11172;BME280;5642;50.830;12.082;2023-04-06T11:19:21;99612.72;;;33.09;18.99
11172;BME280;5642;50.830;12.082;2023-04-06T11:21:48;99636.34;;;33.23;18.95
11172;BME280;5642;50.830;12.082;2023-04-06T11:24:24;99653.91;;;33.42;18.56
11172;BME280;5642;50.830;12.082;2023-04-06T11:29:20;99648.00;;;33.53;18.45
11172;BME280;5642;50.830;12.082;2023-04-06T11:31:51;99645.41;;;33.45;18.30
11172;BME280;5642;50.830;12.082;2023-04-06T11:34:21;99636.56;;;32.99;18.22
11172;BME280;5642;50.830;12.082;2023-04-06T11:36:49;99643.50;;;32.49;18.52
11172;BME280;5642;50.830;12.082;2023-04-06T11:39:21;99644.63;;;31.86;18.34
11172;BME280;5642;50.830;12.082;2023-04-06T11:41:50;99650.44;;;31.36;18.41
11172;BME280;5642;50.830;12.082;2023-04-06T11:46:56;99638.41;;;30.27;17.80
11172;BME280;5642;50.830;12.082;2023-04-06T11:49:27;99643.56;;;29.80;17.69
11172;BME280;5642;50.830;12.082;2023-04-06T11:51:54;99647.69;;;29.16;17.52
11172;BME280;5642;50.830;12.082;2023-04-06T11:54:34;99644.88;;;28.13;17.05
11172;BME280;5642;50.830;12.082;2023-04-06T11:57:01;99626.38;;;27.00;17.16
11172;BME280;5642;50.830;12.082;2023-04-06T11:59:28;99635.13;;;26.07;17.48
11172;BME280;5642;50.830;12.082;2023-04-06T12:01:56;99636.59;;;25.12;17.27
11172;BME280;5642;50.830;12.082;2023-04-06T12:04:22;99636.78;;;24.28;17.64
11172;BME280;5642;50.830;12.082;2023-04-06T12:06:49;99641.41;;;23.51;17.58
11172;BME280;5642;50.830;12.082;2023-04-06T12:09:16;99624.72;;;22.69;17.55
11172;BME280;5642;50.830;12.082;2023-04-06T12:11:46;99621.44;;;21.96;17.44
11172;BME280;5642;50.830;12.082;2023-04-06T12:14:12;99645.56;;;21.34;17.77
11172;BME280;5642;50.830;12.082;2023-04-06T12:16:39;99632.81;;;20.76;17.85
11172;BME280;5642;50.830;12.082;2023-04-06T12:19:06;99631.50;;;20.30;17.96
11172;BME280;5642;50.830;12.082;2023-04-06T12:21:34;99620.97;;;19.89;17.77
11172;BME280;5642;50.830;12.082;2023-04-06T12:24:04;99621.38;;;19.57;17.77
11172;BME280;5642;50.830;12.082;2023-04-06T12:26:31;99620.19;;;19.20;17.87
11172;BME280;5642;50.830;12.082;2023-04-06T12:28:58;99626.88;;;18.84;17.79
11172;BME280;5642;50.830;12.082;2023-04-06T12:31:32;99626.41;;;18.48;17.84
11172;BME280;5642;50.830;12.082;2023-04-06T12:33:58;99613.31;;;18.16;17.93
11172;BME280;5642;50.830;12.082;2023-04-06T12:36:25;99617.72;;;18.02;17.93
11172;BME280;5642;50.830;12.082;2023-04-06T12:38:52;99620.13;;;17.90;17.96
11172;BME280;5642;50.830;12.082;2023-04-06T12:41:18;99617.34;;;17.78;17.92
11172;BME280;5642;50.830;12.082;2023-04-06T12:43:45;99616.75;;;17.73;17.84
11172;BME280;5642;50.830;12.082;2023-04-06T12:46:12;99623.75;;;17.58;18.00
11172;BME280;5642;50.830;12.082;2023-04-06T12:48:38;99615.72;;;17.44;18.07
11172;BME280;5642;50.830;12.082;2023-04-06T12:51:05;99618.63;;;17.39;18.10
11172;BME280;5642;50.830;12.082;2023-04-06T12:53:33;99610.50;;;17.27;18.03
11172;BME280;5642;50.830;12.082;2023-04-06T12:56:11;99615.38;;;17.18;18.03
11172;BME280;5642;50.830;12.082;2023-04-06T12:58:38;99613.31;;;17.08;18.22
11172;BME280;5642;50.830;12.082;2023-04-06T13:01:06;99597.41;;;16.92;18.01
11172;BME280;5642;50.830;12.082;2023-04-06T13:03:33;99589.38;;;16.78;18.19
11172;BME280;5642;50.830;12.082;2023-04-06T13:06:00;99590.41;;;16.75;18.19
11172;BME280;5642;50.830;12.082;2023-04-06T13:08:27;99594.78;;;16.76;18.07
11172;BME280;5642;50.830;12.082;2023-04-06T13:10:54;99590.56;;;16.72;18.24
11172;BME280;5642;50.830;12.082;2023-04-06T13:13:25;99600.69;;;16.64;18.08
11172;BME280;5642;50.830;12.082;2023-04-06T13:15:53;99587.09;;;16.55;18.18
11172;BME280;5642;50.830;12.082;2023-04-06T13:18:21;99592.53;;;16.52;18.21
11172;BME280;5642;50.830;12.082;2023-04-06T13:20:49;99583.13;;;16.46;18.14
11172;BME280;5642;50.830;12.082;2023-04-06T13:23:15;99588.44;;;16.46;18.24